METAR Data
IDs: Format: Raw Decoded Include TAF

Data at: 0341 UTC 21 Sep 2018

KCNO 210253Z COR 27006KT 10SM CLR 22/16 A2990 RMK AO2 SLP119 T02170161 53026
KCNO 210153Z 25011KT 7SM CLR 23/16 A2986 RMK AO2 SLP107 T02330161
KCNO 210053Z 24013KT 10SM CLR 26/16 A2984 RMK AO2 SLP099 T02610161
KCNO 202353Z 26014KT 10SM CLR 29/16 A2982 RMK AO2 SLP092 T02890161 10328 20267 55004
KCNO 202253Z 27014KT 10SM CLR 31/16 A2982 RMK AO2 SLP091 T03110161
KCNO 202153Z 27013KT 10SM CLR 33/14 A2982 RMK AO2 SLP091 T03280144
KCNO 202053Z 27013KT 10SM CLR 32/14 A2983 RMK AO2 SLP096 T03220144 56012
KCNO 201953Z 27010KT 9SM CLR 33/15 A2984 RMK AO2 SLP098 T03280150
KCNO 201853Z VRB05KT 10SM CLR 30/13 A2985 RMK AO2 SLP104 T03000128
KCNO 201753Z VRB03KT 10SM CLR 27/13 A2987 RMK AO2 SLP109 T02670128 10267 20144 50006
KCNO 201653Z VRB03KT 10SM CLR 24/13 A2987 RMK AO2 SLP109 T02390133
KCNO 201553Z 24003KT 10SM CLR 21/14 A2986 RMK AO2 SLP108 T02060139
KCNO 201453Z 00000KT 10SM FEW020 18/13 A2985 RMK AO2 SLP103 T01780133 53020
KCNO 201353Z 00000KT 10SM FEW020 15/12 A2983 RMK AO2 SLP095 T01500122
KCNO 201253Z AUTO 00000KT 6SM HZ CLR 15/12 A2981 RMK AO2 SLP087 T01500122
KCNO 201153Z AUTO 00000KT 5SM HZ CLR 15/12 A2979 RMK AO2 SLP082 T01500122 10200 20133 51003
KCNO 201053Z AUTO 00000KT 5SM HZ CLR 15/12 A2979 RMK AO2 SLP082 T01500122
KCNO 200953Z AUTO 00000KT 5SM HZ CLR 16/12 A2979 RMK AO2 SLP081 T01560122
KCNO 200853Z AUTO 36003KT 5SM HZ CLR 16/12 A2979 RMK AO2 SLP080 T01560122 53002
KCNO 200753Z AUTO 00000KT 7SM CLR 17/13 A2978 RMK AO2 SLP078 T01720128 403330117
KCNO 200653Z AUTO 00000KT 7SM CLR 18/13 A2978 RMK AO2 SLP077 T01830128
KCNO 200553Z AUTO 00000KT 7SM CLR 19/13 A2978 RMK AO2 SLP078 T01890128 10311 20183 51014
KCNO 200453Z AUTO 00000KT 8SM CLR 20/13 A2978 RMK AO2 SLP078 T02000133
KCNO 200353Z AUTO 31004KT 8SM CLR 21/14 A2976 RMK AO2 SLP073 LAST T02110139
KCNO 200253Z 27005KT 10SM CLR 23/14 A2974 RMK AO2 SLP065 T02280144 53011
KCNO 200153Z 24008KT 10SM CLR 26/14 A2972 RMK AO2 SLP059 T02560144
KCNO 200053Z 23011KT 10SM CLR 29/13 A2971 RMK AO2 PK WND 10058/0013 SLP055 T02890133
KCNO 192353Z 25012KT 10SM CLR 31/13 A2970 RMK AO2 SLP052 T03110128 10333 20256 56018
KCNO 192253Z 25009G17KT 10SM CLR 32/11 A2971 RMK AO2 SLP056 T03220106
KCNO 192153Z 27010KT 10SM CLR 33/07 A2973 RMK AO2 SLP062 T03330067
KCNO 192053Z 28007KT 10SM CLR 33/11 A2976 RMK AO2 SLP070 T03330111 $
KCNO 191953Z 25005KT 10SM CLR 31/11 A2978 RMK AO2 SLP079 T03060111 $
KCNO 191853Z 00000KT 10SM CLR 28/09 A2981 RMK AO2 SLP089 T02830094
KCNO 191753Z 00000KT 7SM CLR 26/12 A2983 RMK AO2 SLP097 T02560117 10256 20117 58001
KCNO 191653Z VRB03KT 7SM CLR 22/12 A2984 RMK AO2 SLP099 T02220122
KCNO 191553Z 00000KT 7SM CLR 20/12 A2984 RMK AO2 SLP099 T02000122